Time;durP1;ratioP1;P1;durP2;ratioP2;P2;SDS_P1;SDS_P2;PMS_P1;PMS_P2;Temp;Humidity;BMP_temperature;BMP_pressure;BME280_temperature;BME280_humidity;BME280_pressure;Samples;Min_cycle;Max_cycle;Signal;HPM_P1;HPM_P2
2022/10/15 00:02:08;;;;;;;2.85;1.58;;;16.00;84.50;;;;;;4951153;28;20053;-79
2022/10/15 00:04:33;;;;;;;2.95;1.52;;;16.00;84.30;;;;;;4951211;28;20038;-78
2022/10/15 00:06:59;;;;;;;3.15;1.88;;;16.00;84.20;;;;;;4968462;28;20027;-77
2022/10/15 00:09:25;;;;;;;2.92;1.58;;;15.90;84.10;;;;;;4950784;28;20085;-77
2022/10/15 00:11:51;;;;;;;2.50;1.60;;;16.00;84.10;;;;;;4967329;28;20074;-76
2022/10/15 00:14:17;;;;;;;2.60;1.50;;;16.00;84.00;;;;;;4950228;28;20033;-77
2022/10/15 00:16:42;;;;;;;2.35;1.58;;;16.00;83.90;;;;;;4950400;28;20035;-77
2022/10/15 00:19:08;;;;;;;2.80;1.60;;;16.10;83.90;;;;;;4950255;28;20109;-77
2022/10/15 00:21:34;;;;;;;2.60;1.50;;;16.10;83.80;;;;;;4967696;28;20065;-78
2022/10/15 00:24:00;;;;;;;2.78;1.60;;;16.10;83.80;;;;;;4950471;28;20516;-77
2022/10/15 00:26:27;;;;;;;2.95;1.65;;;16.10;83.90;;;;;;4950941;28;20037;-77
2022/10/15 00:28:55;;;;;;;3.03;1.58;;;16.10;84.00;;;;;;4967902;28;20038;-77
2022/10/15 00:31:23;;;;;;;2.63;1.75;;;16.20;84.30;;;;;;4950303;28;20066;-76
2022/10/15 00:33:49;;;;;;;2.97;1.48;;;16.10;84.10;;;;;;4967572;28;20030;-77
2022/10/15 00:36:18;;;;;;;2.72;1.60;;;16.10;84.30;;;;;;4966555;28;20093;-75
2022/10/15 00:38:43;;;;;;;3.05;1.83;;;16.00;84.10;;;;;;4967378;28;20031;-77
2022/10/15 00:41:31;;;;;;;2.72;1.52;;;16.00;84.30;;;;;;4967537;28;20033;-76
2022/10/15 00:44:19;;;;;;;3.35;1.80;;;16.00;84.10;;;;;;4968297;28;20023;-78
2022/10/15 00:46:56;;;;;;;3.05;1.80;;;16.00;84.10;;;;;;4950239;28;20030;-77
2022/10/15 00:49:26;;;;;;;3.45;1.95;;;16.00;84.10;;;;;;4967670;28;20034;-77
2022/10/15 00:52:00;;;;;;;2.97;1.65;;;16.00;84.50;;;;;;4967330;28;20508;-77
2022/10/15 00:54:28;;;;;;;2.65;1.55;;;16.00;84.40;;;;;;4967312;28;20401;-76
2022/10/15 00:56:54;;;;;;;3.17;1.77;;;15.90;84.40;;;;;;4949763;28;20780;-77
2022/10/15 00:59:23;;;;;;;3.53;1.83;;;16.00;84.50;;;;;;4949932;28;20035;-76
2022/10/15 01:01:49;;;;;;;4.32;2.05;;;16.00;84.50;;;;;;4966876;28;20432;-77
2022/10/15 01:04:17;;;;;;;3.72;1.70;;;16.00;84.50;;;;;;4966489;28;20046;-78
2022/10/15 01:06:43;;;;;;;3.08;1.70;;;16.00;84.50;;;;;;4949633;28;20037;-77
2022/10/15 01:09:09;;;;;;;2.80;1.60;;;16.00;84.50;;;;;;4949736;28;20031;-77
2022/10/15 01:11:48;;;;;;;3.90;2.15;;;16.00;84.50;;;;;;4966748;28;20520;-77
2022/10/15 01:14:38;;;;;;;2.80;1.60;;;16.00;84.30;;;;;;4966784;28;20023;-76
2022/10/15 01:17:45;;;;;;;3.33;1.85;;;16.00;84.20;;;;;;4966966;28;20109;-77
2022/10/15 01:20:35;;;;;;;3.88;1.77;;;16.00;84.10;;;;;;4937530;28;20047;-77
2022/10/15 01:23:38;;;;;;;2.90;1.70;;;16.00;84.00;;;;;;4971043;28;20065;-77
2022/10/15 01:26:06;;;;;;;3.28;1.83;;;16.00;83.90;;;;;;4953417;28;20560;-77
2022/10/15 01:28:53;;;;;;;3.42;1.80;;;16.10;83.90;;;;;;4953107;28;20030;-77
2022/10/15 01:31:34;;;;;;;4.45;2.05;;;16.10;83.80;;;;;;4970196;28;20138;-77
2022/10/15 01:34:12;;;;;;;4.63;2.30;;;16.10;83.90;;;;;;4971035;28;20023;-77
2022/10/15 01:37:01;;;;;;;4.90;2.40;;;16.10;84.10;;;;;;4970706;28;20731;-77
2022/10/15 01:39:31;;;;;;;2.72;1.60;;;16.10;84.20;;;;;;4973418;28;20166;-79
2022/10/15 01:42:04;;;;;;;2.80;1.60;;;16.00;84.20;;;;;;4972324;28;20489;-78
2022/10/15 01:44:32;;;;;;;3.30;1.70;;;16.10;84.30;;;;;;4973801;28;20038;-78
2022/10/15 01:47:02;;;;;;;3.22;1.58;;;16.00;84.20;;;;;;4972798;28;20038;-78
2022/10/15 01:49:32;;;;;;;3.13;1.80;;;16.00;84.30;;;;;;4972794;28;20066;-78
2022/10/15 01:52:00;;;;;;;3.67;1.90;;;16.00;84.20;;;;;;4954479;28;20031;-78
2022/10/15 01:54:27;;;;;;;3.45;1.80;;;16.00;84.20;;;;;;4973002;28;20117;-78
2022/10/15 01:56:54;;;;;;;2.97;1.67;;;16.00;84.20;;;;;;4973089;28;20473;-78
2022/10/15 01:59:23;;;;;;;3.28;1.73;;;16.00;84.30;;;;;;4973520;28;20030;-78
2022/10/15 02:01:49;;;;;;;3.08;1.80;;;16.00;84.50;;;;;;4955654;28;20031;-77
2022/10/15 02:04:23;;;;;;;3.40;1.90;;;15.90;84.40;;;;;;4973280;28;20493;-78
2022/10/15 02:07:04;;;;;;;3.40;1.90;;;16.00;84.30;;;;;;4973744;28;20037;-78
2022/10/15 02:09:44;;;;;;;4.57;1.92;;;16.00;84.60;;;;;;4973050;28;20023;-77
2022/10/15 02:12:15;;;;;;;4.30;2.10;;;16.00;84.60;;;;;;4954989;28;20034;-78
2022/10/15 02:15:05;;;;;;;3.30;1.67;;;16.00;84.50;;;;;;4955462;28;20045;-77
2022/10/15 02:17:38;;;;;;;3.38;1.95;;;16.00;84.60;;;;;;4972944;28;20214;-78
2022/10/15 02:20:24;;;;;;;2.88;1.70;;;16.00;84.60;;;;;;4955198;28;20500;-77
2022/10/15 02:22:58;;;;;;;2.97;1.80;;;16.00;84.30;;;;;;4972046;28;20063;-78
2022/10/15 02:25:26;;;;;;;2.92;1.80;;;15.90;84.20;;;;;;4971127;28;20520;-77
2022/10/15 02:27:55;;;;;;;2.92;1.80;;;16.00;84.20;;;;;;4953114;28;20035;-77
2022/10/15 02:30:21;;;;;;;2.90;1.70;;;16.00;84.10;;;;;;4970374;28;20027;-77
2022/10/15 02:32:51;;;;;;;3.03;1.90;;;16.00;84.00;;;;;;4971420;28;20029;-78
2022/10/15 02:35:18;;;;;;;2.90;1.60;;;16.10;84.00;;;;;;4954082;28;20058;-78
2022/10/15 02:37:47;;;;;;;2.85;1.60;;;16.10;83.90;;;;;;4973543;28;20037;-81
2022/10/15 02:40:13;;;;;;;3.65;2.17;;;16.10;83.90;;;;;;4957076;28;20173;-78
2022/10/15 02:42:39;;;;;;;4.28;2.20;;;16.10;84.10;;;;;;4956044;28;20110;-78
2022/10/15 02:45:05;;;;;;;4.15;2.20;;;16.10;84.30;;;;;;4973852;28;20113;-78
2022/10/15 02:47:31;;;;;;;3.35;1.88;;;16.00;84.20;;;;;;4961894;28;20026;-78
2022/10/15 02:49:57;;;;;;;3.50;2.00;;;16.00;84.30;;;;;;4973969;28;20054;-78
2022/10/15 02:52:22;;;;;;;3.22;1.90;;;16.00;84.50;;;;;;4972790;28;20023;-78
2022/10/15 02:54:48;;;;;;;3.17;1.90;;;16.00;84.40;;;;;;4972867;28;20031;-78
2022/10/15 02:57:13;;;;;;;5.15;2.05;;;16.00;84.40;;;;;;4973070;28;20378;-78
2022/10/15 02:59:39;;;;;;;3.60;1.90;;;16.00;84.40;;;;;;4971583;28;20043;-77
2022/10/15 03:02:05;;;;;;;3.72;1.90;;;16.00;84.50;;;;;;4969429;28;20027;-77
2022/10/15 03:04:30;;;;;;;3.35;2.10;;;16.00;84.30;;;;;;4951725;28;20588;-77
2022/10/15 03:06:56;;;;;;;2.97;1.80;;;16.00;84.40;;;;;;4953996;28;20046;-78
2022/10/15 03:09:21;;;;;;;4.15;2.28;;;16.00;84.40;;;;;;4953922;28;20259;-78
2022/10/15 03:11:47;;;;;;;4.68;2.40;;;16.00;84.50;;;;;;4954286;28;20476;-79
2022/10/15 03:14:13;;;;;;;3.42;1.92;;;16.00;84.70;;;;;;4972068;28;20027;-78
2022/10/15 03:16:38;;;;;;;4.60;2.47;;;16.00;84.70;;;;;;4954007;28;20031;-77
2022/10/15 03:19:04;;;;;;;4.53;2.33;;;16.00;84.70;;;;;;4969805;28;20031;-78
2022/10/15 03:21:29;;;;;;;4.50;2.35;;;16.00;84.70;;;;;;4953796;28;20035;-78
2022/10/15 03:23:56;;;;;;;3.72;2.10;;;16.00;84.70;;;;;;4971428;28;20118;-78
2022/10/15 03:26:22;;;;;;;4.38;2.55;;;16.00;84.50;;;;;;4971416;28;20031;-78
2022/10/15 03:28:47;;;;;;;3.45;1.80;;;16.00;84.60;;;;;;4971256;28;20033;-77
2022/10/15 03:31:13;;;;;;;3.67;1.98;;;16.00;84.30;;;;;;4970504;28;20050;-78
2022/10/15 03:33:39;;;;;;;4.05;2.13;;;16.00;84.30;;;;;;4952888;28;20173;-78
2022/10/15 03:36:05;;;;;;;3.65;1.92;;;16.00;84.20;;;;;;4952107;28;20034;-78
2022/10/15 03:38:31;;;;;;;4.05;1.98;;;16.00;84.20;;;;;;4953224;28;20058;-79
2022/10/15 03:40:56;;;;;;;3.92;2.10;;;16.10;84.10;;;;;;4970086;28;20069;-78
2022/10/15 03:43:25;;;;;;;4.05;2.20;;;16.10;84.00;;;;;;4953012;28;20118;-80
2022/10/15 03:45:51;;;;;;;4.22;2.10;;;16.10;83.90;;;;;;4953357;28;20038;-78
2022/10/15 03:48:17;;;;;;;4.78;2.60;;;16.00;84.00;;;;;;4952825;28;20035;-78
2022/10/15 03:50:43;;;;;;;3.85;2.22;;;16.10;84.20;;;;;;4969689;28;20038;-78
2022/10/15 03:53:09;;;;;;;4.80;2.63;;;16.10;84.40;;;;;;4969819;28;20121;-77
2022/10/15 03:55:35;;;;;;;3.25;2.00;;;16.00;84.40;;;;;;4951921;28;20062;-78
2022/10/15 03:58:01;;;;;;;4.72;2.30;;;15.90;84.50;;;;;;4969103;28;20022;-77
2022/10/15 04:00:27;;;;;;;3.92;2.13;;;16.00;84.60;;;;;;4951806;28;20042;-78
2022/10/15 04:02:52;;;;;;;4.57;2.45;;;16.00;84.40;;;;;;4951981;28;20077;-77
2022/10/15 04:05:18;;;;;;;5.05;2.45;;;16.00;84.50;;;;;;4952644;28;20043;-76
2022/10/15 04:07:43;;;;;;;3.83;2.10;;;16.00;84.60;;;;;;4952299;28;20448;-78
2022/10/15 04:10:09;;;;;;;4.30;2.40;;;16.00;84.50;;;;;;4969837;28;20030;-78
2022/10/15 04:12:35;;;;;;;3.95;2.05;;;16.00;84.40;;;;;;4969337;28;20061;-78
2022/10/15 04:15:01;;;;;;;3.92;2.28;;;16.00;84.50;;;;;;4968885;28;20113;-77
2022/10/15 04:17:26;;;;;;;3.97;2.30;;;16.00;84.50;;;;;;4967865;28;20133;-77
2022/10/15 04:19:52;;;;;;;4.53;2.33;;;16.00;84.40;;;;;;4951562;28;20069;-78
2022/10/15 04:22:18;;;;;;;5.45;2.33;;;16.00;84.70;;;;;;4968812;28;20039;-78
2022/10/15 04:24:43;;;;;;;4.18;2.20;;;16.00;84.80;;;;;;4969657;28;20056;-78
2022/10/15 04:27:10;;;;;;;4.97;2.47;;;16.00;84.70;;;;;;4950806;28;20031;-78
2022/10/15 04:29:36;;;;;;;4.25;2.22;;;16.00;84.80;;;;;;4951215;28;20033;-77
2022/10/15 04:32:01;;;;;;;3.95;2.13;;;16.00;84.60;;;;;;4951780;28;20027;-78
2022/10/15 04:34:27;;;;;;;3.70;2.22;;;16.00;84.60;;;;;;4968704;28;20094;-78
2022/10/15 04:36:52;;;;;;;4.03;2.17;;;16.00;84.50;;;;;;4969489;28;20042;-77
2022/10/15 04:39:18;;;;;;;4.38;2.22;;;15.90;84.40;;;;;;4952365;28;20485;-76
2022/10/15 04:41:44;;;;;;;2.88;1.75;;;16.00;84.40;;;;;;4951841;28;20035;-81
2022/10/15 04:44:09;;;;;;;4.25;2.28;;;16.00;84.20;;;;;;4954037;28;20035;-79
2022/10/15 04:46:35;;;;;;;3.85;2.00;;;16.00;84.20;;;;;;4951516;28;20058;-78
2022/10/15 04:49:00;;;;;;;3.92;2.10;;;16.00;84.20;;;;;;4970528;28;20503;-79
2022/10/15 04:51:26;;;;;;;3.63;2.00;;;16.10;84.10;;;;;;4969781;28;20381;-78
2022/10/15 04:53:52;;;;;;;4.13;2.20;;;16.00;83.90;;;;;;4969889;28;20057;-78
2022/10/15 04:56:19;;;;;;;3.92;2.00;;;16.00;84.00;;;;;;4971235;28;20102;-78
2022/10/15 04:58:46;;;;;;;4.85;2.60;;;16.00;84.20;;;;;;4951797;28;20027;-79
2022/10/15 05:01:15;;;;;;;4.85;2.50;;;16.10;84.40;;;;;;4968611;28;20477;-79
2022/10/15 05:03:43;;;;;;;4.13;2.10;;;16.00;84.60;;;;;;4974288;28;20085;-79
2022/10/15 05:06:18;;;;;;;4.15;2.33;;;16.00;85.10;;;;;;4956240;28;20026;-79
2022/10/15 05:08:44;;;;;;;4.03;2.10;;;16.00;84.60;;;;;;4956218;28;20497;-79
2022/10/15 05:11:13;;;;;;;4.45;2.45;;;16.00;84.50;;;;;;4954995;28;20117;-78
2022/10/15 05:13:39;;;;;;;4.25;2.30;;;16.00;84.60;;;;;;4954600;28;20067;-79
2022/10/15 05:16:26;;;;;;;4.47;2.30;;;16.00;84.60;;;;;;4972525;28;20413;-79
2022/10/15 05:18:56;;;;;;;4.22;2.20;;;16.00;84.50;;;;;;4954964;28;20031;-79
2022/10/15 05:21:21;;;;;;;4.25;2.30;;;16.00;84.70;;;;;;4951469;28;20035;-77
2022/10/15 05:23:48;;;;;;;4.68;2.38;;;16.00;84.70;;;;;;4952707;28;20114;-79
2022/10/15 05:26:17;;;;;;;5.80;2.20;;;15.90;84.60;;;;;;4951088;28;20050;-78
2022/10/15 05:28:43;;;;;;;3.97;2.20;;;15.90;84.50;;;;;;4970105;28;20073;-78
2022/10/15 05:31:11;;;;;;;3.55;1.92;;;16.00;84.60;;;;;;4970920;28;20063;-78
2022/10/15 05:33:37;;;;;;;5.60;2.47;;;16.00;84.60;;;;;;4953365;28;20058;-78
2022/10/15 05:36:17;;;;;;;4.25;2.17;;;16.00;84.70;;;;;;4950933;28;20081;-78
2022/10/15 05:38:45;;;;;;;6.18;3.00;;;15.90;84.60;;;;;;4952809;28;20081;-78
2022/10/15 05:41:10;;;;;;;4.10;2.20;;;15.90;84.80;;;;;;4970157;28;20026;-79
2022/10/15 05:43:36;;;;;;;4.35;2.30;;;16.00;84.80;;;;;;4969968;28;20404;-79
2022/10/15 05:46:02;;;;;;;4.78;2.42;;;15.90;84.50;;;;;;4971168;28;20405;-79
2022/10/15 05:48:28;;;;;;;4.85;2.53;;;16.00;84.50;;;;;;4958597;28;20034;-79
2022/10/15 05:50:58;;;;;;;4.40;2.20;;;15.90;84.40;;;;;;4976655;28;20114;-81
2022/10/15 05:53:24;;;;;;;5.22;2.63;;;16.00;84.30;;;;;;4977153;28;20054;-82
2022/10/15 05:55:52;;;;;;;4.90;2.38;;;16.00;84.20;;;;;;4977648;28;20093;-81
2022/10/15 05:58:18;;;;;;;5.82;2.70;;;16.00;84.10;;;;;;4958764;28;20053;-81
2022/10/15 06:00:44;;;;;;;5.53;2.70;;;16.00;84.10;;;;;;4955273;28;20493;-81
2022/10/15 06:03:13;;;;;;;4.75;2.67;;;16.10;84.30;;;;;;4975637;28;20113;-82
2022/10/15 06:05:39;;;;;;;5.25;2.78;;;16.00;84.30;;;;;;4965397;28;20043;-82
2022/10/15 06:08:05;;;;;;;5.28;2.70;;;16.00;84.60;;;;;;4965686;28;20037;-81
2022/10/15 06:10:34;;;;;;;5.60;3.05;;;16.00;84.60;;;;;;4982637;28;20538;-81
2022/10/15 06:13:00;;;;;;;5.75;2.72;;;16.00;84.60;;;;;;4980030;28;20434;-81
2022/10/15 06:15:25;;;;;;;5.00;2.70;;;16.00;84.70;;;;;;4977401;28;20068;-82
2022/10/15 06:17:54;;;;;;;5.38;3.00;;;16.00;84.60;;;;;;4959554;28;20031;-80
2022/10/15 06:20:19;;;;;;;5.93;3.28;;;16.00;84.60;;;;;;4962527;28;20027;-82
2022/10/15 06:22:45;;;;;;;5.57;2.90;;;16.00;84.80;;;;;;4964697;28;20027;-82
2022/10/15 06:25:10;;;;;;;5.97;3.10;;;16.00;84.60;;;;;;4983041;28;20022;-82
2022/10/15 06:27:36;;;;;;;7.32;3.28;;;16.00;84.80;;;;;;4963748;28;20042;-82
2022/10/15 06:30:02;;;;;;;6.30;3.70;;;16.00;84.70;;;;;;4981327;28;20066;-82
2022/10/15 06:32:27;;;;;;;6.30;3.33;;;16.00;84.80;;;;;;4963524;28;20481;-81
2022/10/15 06:34:53;;;;;;;7.07;3.88;;;16.00;84.80;;;;;;4976997;28;20026;-81
2022/10/15 06:37:18;;;;;;;6.95;3.70;;;16.00;85.00;;;;;;4978650;28;20509;-79
2022/10/15 06:39:45;;;;;;;6.43;3.70;;;16.00;84.90;;;;;;4977679;28;20397;-82
2022/10/15 06:42:11;;;;;;;6.65;3.88;;;16.00;84.90;;;;;;4980232;28;20070;-82
2022/10/15 06:44:37;;;;;;;6.70;3.85;;;16.00;85.00;;;;;;4977834;28;20027;-81
2022/10/15 06:47:02;;;;;;;7.25;4.32;;;15.90;84.80;;;;;;4959736;28;20054;-82
2022/10/15 06:49:28;;;;;;;6.28;3.60;;;16.00;85.00;;;;;;4979955;28;20038;-82
2022/10/15 06:51:53;;;;;;;6.18;3.53;;;16.00;84.70;;;;;;4979368;28;20019;-81
2022/10/15 06:54:19;;;;;;;5.95;3.20;;;15.90;84.60;;;;;;4979567;28;20031;-81
2022/10/15 06:56:44;;;;;;;5.97;3.50;;;16.00;84.60;;;;;;4962112;28;20023;-82
2022/10/15 06:59:10;;;;;;;6.47;3.17;;;16.00;84.50;;;;;;4961737;28;20030;-79
2022/10/15 07:01:36;;;;;;;5.85;3.33;;;16.00;84.50;;;;;;4977357;28;20062;-81
2022/10/15 07:04:01;;;;;;;6.30;3.15;;;16.10;84.40;;;;;;4958634;28;20042;-80
2022/10/15 07:06:27;;;;;;;7.43;4.25;;;16.00;84.20;;;;;;4976091;28;20037;-81
2022/10/15 07:08:52;;;;;;;7.15;4.30;;;16.00;84.30;;;;;;4959302;28;20026;-81
2022/10/15 07:11:18;;;;;;;7.43;4.22;;;16.00;84.40;;;;;;4976911;28;20030;-82
2022/10/15 07:13:43;;;;;;;7.30;4.20;;;16.00;84.50;;;;;;4978131;28;20026;-82
2022/10/15 07:16:11;;;;;;;8.15;4.43;;;16.00;84.70;;;;;;4977258;28;20033;-81
2022/10/15 07:18:37;;;;;;;7.63;4.10;;;16.00;84.80;;;;;;4978819;28;20086;-81
2022/10/15 07:21:04;;;;;;;7.20;3.63;;;16.00;84.70;;;;;;4960515;28;20023;-81
2022/10/15 07:23:30;;;;;;;7.15;4.03;;;16.00;84.70;;;;;;4958878;28;20043;-82
2022/10/15 07:25:59;;;;;;;7.68;4.53;;;16.00;84.70;;;;;;4959242;28;20418;-81
2022/10/15 07:28:25;;;;;;;9.98;6.05;;;16.00;84.70;;;;;;4958857;28;20027;-82
2022/10/15 07:30:52;;;;;;;7.70;4.50;;;15.90;84.70;;;;;;4975887;28;20041;-81
2022/10/15 07:33:17;;;;;;;8.32;4.70;;;15.90;84.80;;;;;;4976326;28;20035;-81
2022/10/15 07:35:43;;;;;;;8.57;5.32;;;16.10;85.10;;;;;;4976283;28;20073;-82
2022/10/15 07:38:08;;;;;;;8.15;4.72;;;15.90;85.00;;;;;;4977559;28;20039;-81
2022/10/15 07:40:34;;;;;;;7.72;4.75;;;16.00;84.90;;;;;;4977670;28;20045;-81
2022/10/15 07:43:00;;;;;;;8.38;4.75;;;16.00;84.90;;;;;;4977482;28;20038;-81
2022/10/15 07:45:26;;;;;;;8.40;4.63;;;16.00;85.00;;;;;;4959478;28;20027;-81
2022/10/15 07:47:52;;;;;;;7.82;4.90;;;16.00;85.10;;;;;;4958615;28;20023;-81
2022/10/15 07:50:18;;;;;;;8.10;4.13;;;15.90;84.90;;;;;;4974790;28;20031;-78
2022/10/15 07:52:44;;;;;;;8.93;4.97;;;15.90;84.80;;;;;;4957086;28;20034;-78
2022/10/15 07:55:10;;;;;;;8.77;5.28;;;16.00;85.00;;;;;;4974761;28;20031;-77
2022/10/15 07:57:35;;;;;;;7.68;4.28;;;16.00;85.00;;;;;;4957348;28;20736;-77
2022/10/15 08:00:01;;;;;;;8.68;5.22;;;16.00;84.80;;;;;;4957330;28;20074;-77
2022/10/15 08:02:27;;;;;;;6.88;4.00;;;16.00;84.80;;;;;;4973935;28;20093;-77
2022/10/15 08:04:52;;;;;;;7.70;4.70;;;16.00;84.80;;;;;;4973990;28;20038;-77
2022/10/15 08:07:18;;;;;;;7.95;4.68;;;16.00;84.80;;;;;;4956662;28;20023;-77
2022/10/15 08:09:43;;;;;;;8.07;4.85;;;16.00;84.70;;;;;;4974238;28;20031;-78
2022/10/15 08:12:09;;;;;;;9.20;5.20;;;16.00;84.60;;;;;;4974167;28;20400;-78
2022/10/15 08:14:35;;;;;;;11.25;6.43;;;16.10;84.50;;;;;;4974046;28;20027;-78
2022/10/15 08:17:02;;;;;;;9.32;5.75;;;16.00;84.70;;;;;;4957973;28;20490;-80
2022/10/15 08:19:28;;;;;;;9.68;5.65;;;16.10;84.80;;;;;;4958671;28;20023;-83
2022/10/15 08:21:53;;;;;;;10.13;5.70;;;16.10;84.90;;;;;;4974929;28;20101;-82
2022/10/15 08:24:19;;;;;;;9.88;6.28;;;16.00;84.80;;;;;;4975379;28;20081;-83
2022/10/15 08:26:45;;;;;;;8.50;5.03;;;16.00;84.90;;;;;;4974385;28;20090;-81
2022/10/15 08:29:11;;;;;;;11.30;6.65;;;16.00;84.90;;;;;;4958359;28;20109;-81
2022/10/15 08:31:38;;;;;;;10.10;6.10;;;16.00;84.90;;;;;;4958530;28;20061;-79
2022/10/15 08:34:04;;;;;;;9.35;5.55;;;16.00;85.00;;;;;;4959658;28;20027;-81
2022/10/15 08:36:29;;;;;;;9.15;5.45;;;16.00;85.10;;;;;;4976304;28;20110;-79
2022/10/15 08:38:55;;;;;;;9.45;5.75;;;16.20;84.90;;;;;;4958731;28;20389;-82
2022/10/15 08:41:36;;;;;;;8.85;5.38;;;16.10;84.70;;;;;;4963961;28;20040;-83
2022/10/15 08:44:02;;;;;;;;;;;16.20;84.00;;;;;;4964858;28;20042;-83
2022/10/15 08:46:36;;;;;;;9.27;5.72;;;16.30;84.40;;;;;;4980015;28;19906;-82
2022/10/15 08:49:03;;;;;;;9.15;5.40;;;16.40;83.80;;;;;;4980439;28;20393;-82
2022/10/15 08:51:38;;;;;;;9.48;5.47;;;16.50;83.30;;;;;;4979245;28;20026;-81
2022/10/15 08:54:05;;;;;;;10.70;6.47;;;16.50;83.10;;;;;;4980323;28;20038;-82
2022/10/15 08:56:38;;;;;;;9.15;5.80;;;16.60;82.90;;;;;;4962617;28;20094;-81
2022/10/15 08:59:35;;;;;;;10.13;6.03;;;16.70;82.50;;;;;;4961853;28;20054;-82
2022/10/15 09:02:15;;;;;;;10.05;6.13;;;16.70;82.20;;;;;;4961601;28;20485;-81
2022/10/15 09:04:59;;;;;;;9.30;5.30;;;16.80;82.10;;;;;;4961617;28;20038;-81
2022/10/15 09:07:32;;;;;;;10.05;5.88;;;16.80;81.90;;;;;;4961688;28;20058;-81
2022/10/15 09:10:24;;;;;;;12.68;6.03;;;16.90;81.80;;;;;;4979057;28;20086;-81
2022/10/15 09:13:00;;;;;;;10.95;6.10;;;16.90;81.70;;;;;;4978158;28;20037;-81
2022/10/15 09:15:29;;;;;;;9.43;5.55;;;16.90;81.70;;;;;;4961221;28;20023;-82
2022/10/15 09:17:55;;;;;;;10.90;6.63;;;16.90;81.60;;;;;;4979066;28;20019;-81
2022/10/15 09:20:27;;;;;;;10.68;5.75;;;16.90;81.60;;;;;;4957605;28;20037;-80
2022/10/15 09:22:53;;;;;;;10.10;6.05;;;16.90;81.70;;;;;;4957993;28;20027;-80
2022/10/15 09:25:21;;;;;;;10.65;6.07;;;16.90;81.70;;;;;;4957497;28;20122;-81
2022/10/15 09:27:48;;;;;;;10.57;6.40;;;16.90;81.80;;;;;;4959571;28;20031;-81
2022/10/15 09:30:24;;;;;;;10.57;6.00;;;16.80;81.90;;;;;;4977729;28;20070;-80
2022/10/15 09:33:27;;;;;;;11.52;6.75;;;16.80;82.10;;;;;;4959807;28;20023;-81
2022/10/15 09:36:15;;;;;;;10.75;6.78;;;16.80;82.10;;;;;;4959260;28;20030;-81
2022/10/15 09:39:18;;;;;;;10.02;6.30;;;16.80;82.30;;;;;;4977336;28;20106;-82
2022/10/15 09:41:59;;;;;;;10.07;5.70;;;16.60;82.40;;;;;;4962281;28;20049;-81
2022/10/15 09:44:32;;;;;;;10.23;6.25;;;16.70;82.70;;;;;;4967227;28;20580;-82
2022/10/15 09:46:57;;;;;;;10.82;6.60;;;16.70;82.60;;;;;;4965919;28;20031;-82
2022/10/15 09:49:25;;;;;;;10.27;6.38;;;16.70;82.60;;;;;;4984540;28;20528;-81
2022/10/15 09:52:05;;;;;;;9.20;5.63;;;16.70;82.50;;;;;;4966724;28;20023;-81
2022/10/15 09:54:47;;;;;;;8.65;5.57;;;16.80;82.50;;;;;;4966547;28;20033;-80
2022/10/15 09:57:14;;;;;;;10.02;6.10;;;16.80;82.40;;;;;;4964973;28;20022;-78
2022/10/15 09:59:52;;;;;;;10.43;6.43;;;16.80;82.30;;;;;;4958989;28;20042;-80
2022/10/15 10:02:20;;;;;;;10.80;6.10;;;16.80;82.30;;;;;;4982735;28;20027;-81
2022/10/15 10:04:45;;;;;;;10.18;5.78;;;16.90;82.30;;;;;;4983033;28;20509;-81
2022/10/15 10:07:28;;;;;;;10.27;5.95;;;16.90;82.10;;;;;;4966631;28;20034;-81
2022/10/15 10:09:56;;;;;;;8.57;5.40;;;17.00;81.90;;;;;;4966219;28;20034;-81
2022/10/15 10:12:27;;;;;;;8.07;5.22;;;17.00;81.80;;;;;;4982810;28;20023;-82
2022/10/15 10:14:59;;;;;;;9.15;5.68;;;17.00;81.70;;;;;;4981350;28;20497;-80
2022/10/15 10:17:29;;;;;;;9.48;5.80;;;17.00;81.80;;;;;;4977961;28;20062;-80
2022/10/15 10:20:14;;;;;;;10.02;5.78;;;16.90;81.90;;;;;;4969420;28;20118;-80
2022/10/15 10:22:47;;;;;;;9.00;5.60;;;16.90;82.10;;;;;;4943917;29;20031;-80
2022/10/15 10:25:53;;;;;;;9.18;5.53;;;16.90;82.30;;;;;;4960270;29;20434;-80
2022/10/15 10:28:39;;;;;;;8.50;5.35;;;16.80;82.40;;;;;;4975624;28;20041;-79
2022/10/15 10:31:08;;;;;;;8.35;5.38;;;16.80;82.60;;;;;;4977163;28;20134;-79
2022/10/15 10:33:41;;;;;;;8.57;5.18;;;16.80;82.80;;;;;;4961665;28;20061;-81
2022/10/15 10:36:33;;;;;;;8.80;5.60;;;16.70;82.90;;;;;;4976926;28;20022;-79
2022/10/15 10:39:13;;;;;;;9.38;5.72;;;16.70;83.00;;;;;;4998867;28;20026;-78
2022/10/15 10:41:59;;;;;;;8.85;5.70;;;16.70;83.10;;;;;;4998266;28;20026;-79
2022/10/15 10:44:33;;;;;;;9.85;6.32;;;16.60;83.70;;;;;;4997086;28;20026;-80
2022/10/15 10:47:05;;;;;;;8.90;5.60;;;16.60;83.20;;;;;;4996422;28;20366;-80
2022/10/15 10:49:34;;;;;;;;;;;16.70;83.20;;;;;;4997957;28;20097;-79
2022/10/15 10:52:00;;;;;;;8.33;5.23;;;16.60;83.10;;;;;;4979630;28;20348;-78
2022/10/15 10:54:28;;;;;;;8.65;5.53;;;16.70;82.90;;;;;;4999217;28;20293;-79
2022/10/15 10:56:55;;;;;;;8.30;5.25;;;16.80;82.70;;;;;;4997162;28;20077;-79
2022/10/15 10:59:36;;;;;;;8.35;5.40;;;16.90;82.60;;;;;;4996235;28;20062;-80
2022/10/15 11:02:05;;;;;;;;;;;16.90;82.40;;;;;;4997504;28;20030;-81
2022/10/15 11:04:33;;;;;;;9.10;5.70;;;17.00;82.40;;;;;;4979924;28;20012;-79
2022/10/15 11:07:20;;;;;;;8.65;5.90;;;17.00;82.20;;;;;;4979585;28;20038;-79
2022/10/15 11:09:58;;;;;;;8.55;5.18;;;17.00;82.10;;;;;;4979428;28;20649;-79
2022/10/15 11:13:02;;;;;;;8.25;5.43;;;17.10;82.00;;;;;;4979413;28;20085;-81
2022/10/15 11:15:55;;;;;;;8.80;5.75;;;17.00;82.00;;;;;;4937886;28;20034;-80
2022/10/15 11:18:35;;;;;;;7.63;4.82;;;17.00;82.10;;;;;;4996918;28;20062;-79
2022/10/15 11:21:33;;;;;;;8.93;5.45;;;17.00;82.20;;;;;;4995787;28;20030;-79
2022/10/15 11:24:13;;;;;;;9.00;5.25;;;17.00;82.20;;;;;;4964267;28;20042;-80
2022/10/15 11:26:44;;;;;;;8.30;5.20;;;17.00;81.90;;;;;;4979150;28;20573;-79
2022/10/15 11:29:35;;;;;;;7.72;4.97;;;17.00;81.70;;;;;;4979562;28;20037;-80
2022/10/15 11:32:15;;;;;;;8.57;5.20;;;17.20;81.60;;;;;;4982410;28;20169;-81
2022/10/15 11:35:03;;;;;;;8.02;4.82;;;17.20;81.40;;;;;;4978766;28;20457;-80
2022/10/15 11:37:49;;;;;;;8.57;5.10;;;17.20;81.30;;;;;;4996223;28;20072;-80
2022/10/15 11:40:31;;;;;;;7.72;4.78;;;17.20;81.30;;;;;;4995834;28;20033;-80
2022/10/15 11:43:06;;;;;;;8.90;5.28;;;17.20;81.40;;;;;;4995841;28;20046;-80
2022/10/15 11:45:37;;;;;;;8.02;5.15;;;17.20;81.50;;;;;;4977374;28;20026;-79
2022/10/15 11:48:43;;;;;;;8.02;4.80;;;17.20;81.40;;;;;;4977944;28;20118;-81
2022/10/15 11:51:37;;;;;;;7.80;4.68;;;17.20;81.50;;;;;;4982110;28;20504;-84
2022/10/15 11:54:35;;;;;;;7.65;5.03;;;17.20;81.60;;;;;;4975723;28;20085;-81
2022/10/15 11:57:03;;;;;;;7.13;4.28;;;17.20;81.60;;;;;;4995621;28;20023;-81
2022/10/15 11:59:46;;;;;;;7.10;4.40;;;17.20;81.70;;;;;;4995912;28;20052;-82
2022/10/15 12:02:17;;;;;;;7.32;4.88;;;17.20;81.80;;;;;;4977532;28;20042;-81
2022/10/15 12:04:57;;;;;;;7.22;4.28;;;17.10;81.90;;;;;;4978072;28;20496;-81
2022/10/15 12:07:27;;;;;;;7.35;4.70;;;17.10;82.20;;;;;;4995439;28;20041;-81
2022/10/15 12:09:59;;;;;;;6.53;3.90;;;17.00;82.30;;;;;;4996096;28;20073;-81
2022/10/15 12:12:42;;;;;;;6.65;4.28;;;17.00;82.40;;;;;;4994512;28;20110;-81
2022/10/15 12:15:27;;;;;;;12.68;5.38;;;17.00;82.50;;;;;;4994696;28;20073;-82
2022/10/15 12:18:26;;;;;;;14.75;5.32;;;17.00;83.10;;;;;;4983131;28;20094;-82
2022/10/15 12:20:54;;;;;;;10.27;4.93;;;16.90;83.70;;;;;;4916215;28;20034;-82
2022/10/15 12:23:37;;;;;;;10.80;5.47;;;17.00;83.40;;;;;;4982544;28;20034;-82
2022/10/15 12:26:22;;;;;;;10.45;5.13;;;17.00;83.00;;;;;;4980673;28;20030;-82
2022/10/15 12:28:50;;;;;;;11.63;4.97;;;16.90;83.20;;;;;;4968454;28;20405;-83
2022/10/15 12:31:19;;;;;;;9.77;4.95;;;17.00;83.20;;;;;;4978758;28;20393;-82
2022/10/15 12:33:51;;;;;;;9.48;4.53;;;17.00;83.30;;;;;;4961330;28;20019;-81
2022/10/15 12:36:26;;;;;;;11.50;4.63;;;17.10;83.50;;;;;;4977176;28;20082;-82
2022/10/15 12:39:26;;;;;;;9.65;4.78;;;17.10;83.30;;;;;;4961660;28;20031;-82
2022/10/15 12:41:51;;;;;;;9.30;4.78;;;17.10;83.10;;;;;;4953303;28;20030;-82
2022/10/15 12:44:25;;;;;;;11.38;4.28;;;17.20;82.90;;;;;;4961186;28;20150;-80
2022/10/15 12:46:51;;;;;;;9.68;4.25;;;17.20;83.40;;;;;;4978283;28;20035;-82
2022/10/15 12:49:26;;;;;;;10.13;4.22;;;17.20;83.20;;;;;;4978109;28;20493;-81
2022/10/15 12:51:56;;;;;;;8.55;4.25;;;17.20;83.70;;;;;;4960487;28;20029;-81
2022/10/15 12:54:35;;;;;;;7.85;3.70;;;17.20;84.30;;;;;;4961009;28;20054;-81
2022/10/15 12:57:22;;;;;;;8.38;4.03;;;17.20;84.30;;;;;;4960148;28;20027;-81
2022/10/15 12:59:55;;;;;;;8.82;4.35;;;17.20;85.10;;;;;;4957189;28;20043;-82
2022/10/15 13:02:40;;;;;;;7.35;3.92;;;17.20;85.50;;;;;;4977691;28;20369;-81
2022/10/15 13:05:22;;;;;;;7.15;3.78;;;17.20;85.40;;;;;;4960370;28;20034;-81
2022/10/15 13:07:48;;;;;;;9.75;4.25;;;17.30;86.20;;;;;;4959547;28;20057;-81